Time;durP1;ratioP1;P1;durP2;ratioP2;P2;SDS_P1;SDS_P2;PMS_P1;PMS_P2;Temp;Humidity;BMP_temperature;BMP_pressure;BME280_temperature;BME280_humidity;BME280_pressure;Samples;Min_cycle;Max_cycle;Signal;HPM_P1;HPM_P2
2023/05/17 00:02:11;;;;;;;11.57;7.93;;;;;;;14.99;93.34;100628.59;4992046;28;20077;-89
2023/05/17 00:04:37;;;;;;;12.75;7.78;;;;;;;14.95;93.70;100622.75;4959684;28;20411;-87
2023/05/17 00:07:02;;;;;;;11.75;7.90;;;;;;;14.94;94.00;100615.84;4975843;28;20042;-88
2023/05/17 00:09:28;;;;;;;12.80;8.88;;;;;;;14.95;94.31;100614.94;4975904;28;20088;-90
2023/05/17 00:11:53;;;;;;;11.63;7.85;;;;;;;14.96;94.36;100607.97;4975237;28;20049;-88
2023/05/17 00:14:19;;;;;;;14.52;8.98;;;;;;;14.89;94.58;100607.53;4975699;28;20034;-87
2023/05/17 00:16:44;;;;;;;12.40;8.20;;;;;;;14.83;94.53;100581.88;4975703;28;20033;-89
2023/05/17 00:19:10;;;;;;;13.75;8.43;;;;;;;14.91;94.24;100595.25;4991875;28;20480;-88
2023/05/17 00:21:35;;;;;;;12.80;8.32;;;;;;;14.93;94.52;100588.97;4975905;28;20556;-88
2023/05/17 00:24:01;;;;;;;11.23;7.80;;;;;;;15.03;93.63;100583.97;4975410;28;20041;-89
2023/05/17 00:26:26;;;;;;;11.90;8.32;;;;;;;14.93;93.95;100577.72;4991405;28;20045;-88
2023/05/17 00:28:51;;;;;;;18.30;8.05;;;;;;;14.81;94.19;100565.53;4975452;28;20053;-87
2023/05/17 00:31:17;;;;;;;13.63;9.55;;;;;;;14.98;93.98;100596.50;4975394;28;20034;-89
2023/05/17 00:33:42;;;;;;;11.18;7.53;;;;;;;14.86;94.01;100568.69;4991384;28;20027;-88
2023/05/17 00:36:08;;;;;;;16.08;8.77;;;;;;;14.96;93.92;100582.75;4991365;28;20502;-88
2023/05/17 00:38:33;;;;;;;12.77;8.00;;;;;;;14.96;94.05;100582.75;4972970;28;20423;-87
2023/05/17 00:40:59;;;;;;;13.50;8.32;;;;;;;14.92;94.37;100582.09;4991168;28;20038;-87
2023/05/17 00:43:25;;;;;;;12.32;8.88;;;;;;;14.87;94.90;100576.38;4974812;28;20042;-88
2023/05/17 00:45:51;;;;;;;14.35;9.30;;;;;;;14.91;94.33;100571.78;4991293;28;20484;-88
2023/05/17 00:48:16;;;;;;;14.20;7.90;;;;;;;14.92;94.49;100573.47;4991517;28;20084;-87
2023/05/17 00:50:42;;;;;;;11.65;8.40;;;;;;;14.78;94.48;100568.34;4958925;28;20451;-88
2023/05/17 00:53:07;;;;;;;15.32;7.43;;;;;;;14.93;94.05;100585.53;4991846;28;20502;-88
2023/05/17 00:55:33;;;;;;;15.18;8.77;;;;;;;14.86;94.79;100581.72;4974708;28;20058;-86
2023/05/17 00:57:58;;;;;;;10.52;8.23;;;;;;;14.87;94.64;100593.78;4975222;28;20049;-86
2023/05/17 01:00:23;;;;;;;14.23;8.48;;;;;;;14.83;95.56;100587.09;4991340;28;20034;-88
2023/05/17 01:02:49;;;;;;;12.57;9.35;;;;;;;14.74;95.37;100556.47;4974904;28;20035;-88
2023/05/17 01:05:14;;;;;;;13.18;9.70;;;;;;;14.84;94.72;100568.75;4974458;28;20030;-88
2023/05/17 01:07:40;;;;;;;19.25;12.95;;;;;;;14.77;94.94;100562.31;4958365;28;20041;-87
2023/05/17 01:10:06;;;;;;;21.77;12.05;;;;;;;14.84;94.52;100568.75;4990375;28;20081;-87
2023/05/17 01:12:46;;;;;;;17.65;11.57;;;;;;;14.86;94.58;100584.31;4974417;28;20113;-88
2023/05/17 01:15:28;;;;;;;21.88;11.85;;;;;;;14.81;94.79;100594.19;4974590;28;20034;-87
2023/05/17 01:18:15;;;;;;;15.53;10.13;;;;;;;14.76;95.18;100591.91;4974547;28;20081;-87
2023/05/17 01:20:44;;;;;;;17.45;10.48;;;;;;;14.59;95.22;100548.75;4991958;28;20269;-88
2023/05/17 01:23:31;;;;;;;15.95;10.75;;;;;;;14.89;94.53;100581.50;4974368;28;20037;-87
2023/05/17 01:26:38;;;;;;;15.13;9.82;;;;;;;14.86;95.14;100592.13;4991885;28;20065;-87
2023/05/17 01:29:03;;;;;;;13.50;9.73;;;;;;;14.62;95.38;100558.13;4988422;28;20050;-87
2023/05/17 01:31:30;;;;;;;24.90;10.63;;;;;;;14.86;95.09;100595.56;4974149;28;20092;-87
2023/05/17 01:33:57;;;;;;;18.63;9.80;;;;;;;14.85;95.02;100609.53;4958541;28;20136;-87
2023/05/17 01:36:23;;;;;;;15.07;9.23;;;;;;;14.82;94.90;100614.09;4958806;28;20443;-86
2023/05/17 01:38:48;;;;;;;13.27;8.88;;;;;;;14.82;94.80;100616.69;4973652;28;20043;-87
2023/05/17 01:41:22;;;;;;;19.00;9.15;;;;;;;14.89;94.58;100620.56;4974164;28;20093;-87
2023/05/17 01:44:14;;;;;;;11.88;7.57;;;;;;;14.76;94.47;100589.31;4973951;28;20157;-86
2023/05/17 01:46:40;;;;;;;15.75;9.70;;;;;;;14.91;94.31;100614.31;4990476;28;20408;-86
2023/05/17 01:49:15;;;;;;;23.20;8.65;;;;;;;14.90;94.83;100614.41;4974186;28;20396;-87
2023/05/17 01:51:51;;;;;;;10.73;7.63;;;;;;;14.84;94.70;100620.00;4991320;28;20411;-87
2023/05/17 01:54:20;;;;;;;13.95;8.45;;;;;;;14.83;94.87;100627.00;4974913;28;20034;-88
2023/05/17 01:56:47;;;;;;;12.40;8.13;;;;;;;14.66;95.65;100610.84;4958142;28;20113;-87
2023/05/17 01:59:14;;;;;;;12.57;8.38;;;;;;;14.75;95.80;100637.13;4990237;28;20068;-87
2023/05/17 02:01:40;;;;;;;12.55;8.30;;;;;;;14.76;96.42;100637.94;4957840;28;20080;-87
2023/05/17 02:04:05;;;;;;;10.20;7.25;;;;;;;14.83;96.58;100633.97;4974835;28;20030;-86
2023/05/17 02:06:30;;;;;;;10.73;8.13;;;;;;;14.73;96.10;100607.72;4961652;28;20030;-87
2023/05/17 02:08:57;;;;;;;15.25;8.45;;;;;;;14.85;96.13;100626.91;4993939;28;20034;-88
2023/05/17 02:11:23;;;;;;;15.23;8.07;;;;;;;14.89;96.09;100613.56;4995073;28;20022;-87
2023/05/17 02:13:48;;;;;;;12.55;9.27;;;;;;;14.98;95.46;100626.94;4978046;28;20062;-88
2023/05/17 02:16:14;;;;;;;14.30;8.38;;;;;;;14.91;95.65;100613.47;4994100;28;20506;-88
2023/05/17 02:18:40;;;;;;;14.13;8.32;;;;;;;15.04;95.28;100626.50;4961703;28;20514;-88
2023/05/17 02:21:05;;;;;;;24.83;8.13;;;;;;;15.04;94.44;100622.13;4993747;28;20060;-88
2023/05/17 02:23:30;;;;;;;12.00;7.53;;;;;;;15.15;93.84;100643.09;4993918;28;20027;-87
2023/05/17 02:25:56;;;;;;;12.23;8.18;;;;;;;15.16;94.12;100644.75;4977646;28;20041;-87
2023/05/17 02:28:21;;;;;;;9.40;6.97;;;;;;;15.13;93.70;100657.16;4993894;28;20018;-86
2023/05/17 02:30:47;;;;;;;13.57;7.18;;;;;;;15.03;93.98;100649.09;4977988;28;20038;-87
2023/05/17 02:33:12;;;;;;;10.35;7.18;;;;;;;15.07;94.47;100655.81;4977419;28;20491;-88
2023/05/17 02:35:38;;;;;;;13.25;7.60;;;;;;;15.11;94.59;100664.25;4993544;28;20474;-87
2023/05/17 02:38:03;;;;;;;11.02;6.15;;;;;;;15.16;94.64;100670.81;4993740;28;20050;-88
2023/05/17 02:40:29;;;;;;;11.68;7.00;;;;;;;15.16;94.74;100670.81;4993444;28;20027;-87
2023/05/17 02:42:54;;;;;;;8.80;5.93;;;;;;;15.10;93.92;100666.00;4993639;28;20081;-88
2023/05/17 02:45:20;;;;;;;14.07;5.93;;;;;;;15.12;94.24;100669.34;4977092;28;20419;-87
2023/05/17 02:47:45;;;;;;;8.65;5.50;;;;;;;15.04;94.65;100662.97;4977217;28;20026;-88
2023/05/17 02:50:10;;;;;;;14.95;7.00;;;;;;;15.13;94.14;100684.03;4960891;28;20035;-87
2023/05/17 02:52:36;;;;;;;15.68;6.35;;;;;;;15.00;93.97;100657.13;4993146;28;20037;-87
2023/05/17 02:55:01;;;;;;;9.73;6.30;;;;;;;15.17;93.57;100674.25;4977242;28;20506;-87
2023/05/17 02:57:27;;;;;;;10.90;6.82;;;;;;;15.06;93.94;100664.56;4993396;28;20022;-86
2023/05/17 02:59:52;;;;;;;7.90;5.60;;;;;;;15.16;93.09;100678.63;4993371;28;20034;-86
2023/05/17 03:02:18;;;;;;;7.43;5.38;;;;;;;15.23;93.51;100688.63;4976977;28;20510;-85
2023/05/17 03:04:43;;;;;;;11.57;7.28;;;;;;;15.23;93.44;100688.63;4976753;28;20037;-86
2023/05/17 03:07:09;;;;;;;10.75;7.00;;;;;;;15.17;93.65;100701.16;4960763;28;20031;-86
2023/05/17 03:09:35;;;;;;;15.82;7.15;;;;;;;15.15;92.80;100686.56;4992895;28;20105;-89
2023/05/17 03:12:00;;;;;;;7.82;5.55;;;;;;;15.32;92.62;100711.47;4976990;28;20070;-86
2023/05/17 03:14:26;;;;;;;9.82;7.20;;;;;;;15.18;92.78;100694.16;4960507;28;20030;-87
2023/05/17 03:16:51;;;;;;;8.50;6.38;;;;;;;15.17;92.81;100689.91;4992418;28;20085;-85
2023/05/17 03:19:16;;;;;;;13.38;6.38;;;;;;;15.26;93.16;100720.56;4993905;28;20039;-85
2023/05/17 03:21:42;;;;;;;9.27;6.32;;;;;;;15.29;91.98;100722.94;4960628;28;20597;-86
2023/05/17 03:24:07;;;;;;;10.63;6.75;;;;;;;15.28;92.09;100720.44;4976646;28;20508;-87
2023/05/17 03:26:33;;;;;;;14.13;5.85;;;;;;;15.21;92.43;100723.44;4976586;28;20069;-86
2023/05/17 03:28:58;;;;;;;12.70;7.45;;;;;;;15.20;92.49;100724.38;4976612;28;20499;-88
2023/05/17 03:31:24;;;;;;;10.07;6.15;;;;;;;15.23;93.18;100725.13;4991052;28;20488;-88
2023/05/17 03:33:50;;;;;;;14.93;6.72;;;;;;;15.04;92.96;100708.09;4976446;28;20026;-89
2023/05/17 03:36:15;;;;;;;9.60;6.38;;;;;;;15.10;92.90;100720.72;4976732;28;20559;-90
2023/05/17 03:38:40;;;;;;;10.57;5.30;;;;;;;15.15;91.78;100726.47;4977067;28;20057;-91
2023/05/17 03:41:06;;;;;;;11.80;5.45;;;;;;;15.14;91.74;100727.41;4993275;28;20023;-90
2023/05/17 03:43:31;;;;;;;12.73;6.85;;;;;;;15.15;91.53;100733.47;4991748;28;20051;-88
2023/05/17 03:45:57;;;;;;;12.88;6.65;;;;;;;15.10;90.86;100725.94;4960151;28;20515;-87
2023/05/17 03:48:22;;;;;;;9.80;5.88;;;;;;;15.14;90.93;100729.16;4992286;28;20415;-88
2023/05/17 03:50:48;;;;;;;10.20;6.35;;;;;;;15.12;91.70;100723.22;4959930;28;20053;-87
2023/05/17 03:53:13;;;;;;;9.43;6.25;;;;;;;15.11;91.49;100727.59;4975902;28;20041;-88
2023/05/17 03:55:38;;;;;;;11.85;6.13;;;;;;;15.08;91.61;100730.41;4991699;28;20034;-87
2023/05/17 03:58:04;;;;;;;9.60;6.22;;;;;;;15.01;91.19;100736.97;4991841;28;20026;-89
2023/05/17 04:00:29;;;;;;;6.95;5.25;;;;;;;14.85;91.84;100721.53;4992111;28;20488;-88
2023/05/17 04:02:55;;;;;;;11.77;7.18;;;;;;;15.02;90.94;100762.06;4991848;28;20458;-87
2023/05/17 04:05:20;;;;;;;10.13;5.78;;;;;;;15.04;90.71;100772.41;4976837;28;20092;-88
2023/05/17 04:07:46;;;;;;;9.30;6.43;;;;;;;14.79;91.02;100747.13;4974739;28;20023;-89
2023/05/17 04:10:11;;;;;;;9.20;6.18;;;;;;;14.86;91.24;100770.06;4976229;28;20023;-87
2023/05/17 04:12:36;;;;;;;11.38;5.63;;;;;;;14.82;91.38;100746.91;5006205;28;20022;-83
2023/05/17 04:15:02;;;;;;;10.48;5.28;;;;;;;14.97;91.83;100768.53;4991307;28;20033;-83
2023/05/17 04:17:28;;;;;;;25.45;6.70;;;;;;;14.88;91.44;100759.53;4987725;28;20062;-82
2023/05/17 04:19:53;;;;;;;8.60;5.90;;;;;;;14.89;90.43;100763.81;4990518;28;20030;-89
2023/05/17 04:22:19;;;;;;;16.20;6.05;;;;;;;14.84;91.00;100771.06;4992191;28;20088;-92
2023/05/17 04:24:45;;;;;;;8.75;6.10;;;;;;;14.87;90.18;100771.75;4991854;28;20030;-87
2023/05/17 04:27:10;;;;;;;10.40;5.55;;;;;;;14.98;90.12;100789.28;4970935;28;20093;-89
2023/05/17 04:29:36;;;;;;;11.48;5.82;;;;;;;14.90;89.75;100796.75;4990273;28;20411;-90
2023/05/17 04:32:01;;;;;;;8.07;5.57;;;;;;;14.90;89.89;100796.75;5054723;23;20062;-94
2023/05/17 04:34:27;;;;;;;9.93;5.80;;;;;;;14.92;89.78;100805.28;4998656;28;20034;-87
2023/05/17 04:36:52;;;;;;;9.57;5.20;;;;;;;14.89;89.93;100805.50;4986484;28;20046;-87
2023/05/17 04:39:19;;;;;;;9.30;6.10;;;;;;;14.89;90.19;100815.91;4955858;28;20038;-90
2023/05/17 04:41:45;;;;;;;11.30;5.82;;;;;;;14.97;90.92;100826.69;4974254;28;20105;-92
2023/05/17 04:44:10;;;;;;;9.18;5.82;;;;;;;14.97;91.30;100825.84;4956855;28;20126;-87
2023/05/17 04:46:36;;;;;;;11.50;6.97;;;;;;;14.89;91.40;100815.91;4972516;28;20077;-90
2023/05/17 04:49:02;;;;;;;17.27;6.75;;;;;;;14.96;90.92;100827.63;4976683;28;20027;-96
2023/05/17 04:51:28;;;;;;;12.27;7.25;;;;;;;15.00;91.47;100834.28;4976150;28;20034;-93
2023/05/17 04:53:53;;;;;;;8.60;6.70;;;;;;;14.91;91.96;100824.47;4958410;28;20455;-91
2023/05/17 04:56:19;;;;;;;13.77;7.72;;;;;;;14.91;91.95;100832.28;4975449;28;20046;-91
2023/05/17 04:58:45;;;;;;;9.23;6.20;;;;;;;14.95;91.22;100833.78;4970074;28;20492;-87
2023/05/17 05:01:10;;;;;;;17.13;6.90;;;;;;;14.96;91.40;100821.56;4970277;28;20026;-89
2023/05/17 05:03:36;;;;;;;14.00;6.20;;;;;;;14.96;90.98;100832.84;4963022;28;20069;-86
2023/05/17 05:06:02;;;;;;;14.52;6.35;;;;;;;15.00;91.34;100836.06;4955475;28;20034;-87
2023/05/17 05:08:28;;;;;;;10.85;6.25;;;;;;;14.98;90.51;100838.78;4960075;28;20067;-90
2023/05/17 05:10:54;;;;;;;11.77;6.15;;;;;;;14.95;90.10;100838.97;4958183;28;20425;-91
2023/05/17 05:13:20;;;;;;;19.75;6.35;;;;;;;15.05;88.83;100841.84;5049001;23;20509;-90
2023/05/17 05:15:45;;;;;;;8.80;5.50;;;;;;;14.99;89.00;100837.84;4952345;29;20442;-89
2023/05/17 05:18:12;;;;;;;13.23;5.82;;;;;;;14.94;89.01;100837.28;4936435;29;20051;-92
2023/05/17 05:20:38;;;;;;;7.22;4.68;;;;;;;14.85;89.52;100835.28;4952959;29;20027;-86
2023/05/17 05:23:04;;;;;;;6.97;5.68;;;;;;;14.87;88.97;100838.63;4935216;29;20069;-92
2023/05/17 05:25:34;;;;;;;7.57;4.80;;;;;;;14.72;88.94;100816.13;4920955;29;20031;-86
2023/05/17 05:27:59;;;;;;;11.20;5.38;;;;;;;14.84;88.55;100846.59;4936032;29;20028;-90
2023/05/17 05:30:25;;;;;;;11.38;6.93;;;;;;;14.90;88.53;100843.63;4935388;29;20038;-88
2023/05/17 05:32:50;;;;;;;13.85;5.13;;;;;;;14.85;87.90;100836.13;4948392;28;20023;-86
2023/05/17 05:35:16;;;;;;;8.68;5.65;;;;;;;14.91;87.68;100842.69;4936196;29;20030;-85
2023/05/17 05:37:42;;;;;;;7.93;5.30;;;;;;;14.95;88.12;100846.78;4950771;28;20034;-93
2023/05/17 05:40:08;;;;;;;9.77;5.75;;;;;;;14.82;87.93;100835.47;4935466;29;20042;-88
2023/05/17 05:42:34;;;;;;;9.15;6.55;;;;;;;14.94;87.49;100855.50;4937193;29;20039;-92
2023/05/17 05:44:59;;;;;;;10.80;5.10;;;;;;;14.92;88.30;100852.19;4952413;29;20493;-90
2023/05/17 05:47:25;;;;;;;9.15;6.28;;;;;;;14.96;88.51;100868.47;4951980;29;20035;-90
2023/05/17 05:49:50;;;;;;;12.00;5.95;;;;;;;14.89;88.14;100845.41;4951662;29;20027;-91
2023/05/17 05:52:15;;;;;;;9.63;5.32;;;;;;;14.97;88.71;100859.72;4953518;29;20505;-90
2023/05/17 05:54:41;;;;;;;16.98;7.43;;;;;;;14.99;88.65;100863.88;4955022;29;20035;-92
2023/05/17 05:57:06;;;;;;;30.00;18.27;;;;;;;15.03;88.35;100870.56;4941510;29;20032;-91
2023/05/17 05:59:32;;;;;;;12.20;7.03;;;;;;;15.07;86.91;100871.22;4934529;29;20493;-82
2023/05/17 06:01:57;;;;;;;15.02;7.30;;;;;;;15.09;85.54;100874.56;4962846;28;20389;-91
2023/05/17 06:04:23;;;;;;;10.27;6.75;;;;;;;14.94;85.57;100860.72;4953751;29;20069;-88
2023/05/17 06:06:49;;;;;;;11.80;5.95;;;;;;;15.04;85.29;100868.78;4940472;29;20031;-85
2023/05/17 06:09:15;;;;;;;7.28;5.45;;;;;;;15.03;83.68;100864.53;4934734;29;20035;-90
2023/05/17 06:11:40;;;;;;;8.30;5.65;;;;;;;15.15;84.16;100875.03;4938376;29;20082;-86
2023/05/17 06:14:07;;;;;;;9.50;5.78;;;;;;;15.17;83.23;100872.31;4950358;29;20062;-87
2023/05/17 06:16:33;;;;;;;12.38;5.53;;;;;;;15.12;83.49;100875.19;4956181;28;20118;-93
2023/05/17 06:18:59;;;;;;;8.15;5.22;;;;;;;15.13;83.07;100871.66;4955912;29;20031;-90
2023/05/17 06:21:24;;;;;;;10.77;5.40;;;;;;;15.23;83.34;100884.09;4936700;29;20027;-90
2023/05/17 06:23:50;;;;;;;9.98;5.25;;;;;;;15.22;82.33;100880.66;4954139;29;20086;-87
2023/05/17 06:26:15;;;;;;;6.78;5.00;;;;;;;15.30;82.55;100888.81;4935474;29;20042;-87
2023/05/17 06:28:41;;;;;;;7.25;5.38;;;;;;;15.27;82.89;100875.16;4951707;29;20078;-90
2023/05/17 06:31:06;;;;;;;11.57;5.50;;;;;;;15.34;83.17;100890.31;4938555;28;20031;-91
2023/05/17 06:33:32;;;;;;;11.77;6.97;;;;;;;15.35;83.18;100891.16;4956054;29;20066;-92
2023/05/17 06:35:58;;;;;;;8.15;5.45;;;;;;;15.34;82.17;100895.53;4940942;29;20039;-93
2023/05/17 06:38:23;;;;;;;7.97;5.28;;;;;;;15.38;81.59;100906.59;4926583;29;20032;-92
2023/05/17 06:40:54;;;;;;;8.43;5.60;;;;;;;15.35;81.38;100901.56;4937380;29;20451;-92
2023/05/17 06:43:20;;;;;;;10.65;5.63;;;;;;;15.35;81.13;100898.97;4938593;29;20409;-90
2023/05/17 06:45:45;;;;;;;8.82;5.22;;;;;;;15.41;81.26;100908.97;4966948;28;20087;-93
2023/05/17 06:48:11;;;;;;;8.25;5.43;;;;;;;15.31;81.09;100884.44;4935634;29;20155;-86
2023/05/17 06:50:36;;;;;;;11.82;5.90;;;;;;;15.52;80.74;100919.56;4968866;28;20086;-91
2023/05/17 06:53:03;;;;;;;7.35;5.05;;;;;;;15.49;81.46;100901.50;4938972;29;20400;-88
2023/05/17 06:55:28;;;;;;;9.18;5.45;;;;;;;15.56;81.52;100902.78;4953996;29;20254;-90
2023/05/17 06:57:54;;;;;;;8.43;5.15;;;;;;;15.71;84.55;100920.06;4957826;29;20504;-91
2023/05/17 07:00:20;;;;;;;11.23;5.28;;;;;;;15.82;82.67;100916.72;4927871;29;20058;-91
2023/05/17 07:02:45;;;;;;;7.22;5.13;;;;;;;15.76;79.35;100902.34;4938882;29;20063;-92
2023/05/17 07:05:11;;;;;;;7.20;5.07;;;;;;;15.63;79.70;100896.28;4949259;28;20032;-91
2023/05/17 07:07:36;;;;;;;10.32;6.50;;;;;;;15.70;80.22;100917.56;4946100;29;20035;-92
2023/05/17 07:10:03;;;;;;;10.27;6.03;;;;;;;15.78;81.09;100926.53;4940055;29;20039;-91
2023/05/17 07:12:29;;;;;;;8.60;4.95;;;;;;;15.79;79.24;100927.38;4953993;29;20101;-89
2023/05/17 07:14:54;;;;;;;6.72;4.63;;;;;;;15.84;79.34;100927.09;4951643;28;21503;-90
2023/05/17 07:17:21;;;;;;;8.50;5.13;;;;;;;15.80;78.82;100913.41;4939512;29;20431;-88
2023/05/17 07:19:49;;;;;;;11.55;5.40;;;;;;;15.91;79.20;100923.13;4941354;29;20503;-87
2023/05/17 07:22:16;;;;;;;10.88;5.32;;;;;;;15.95;79.31;100922.00;4954668;29;20167;-89
2023/05/17 07:24:43;;;;;;;8.32;4.95;;;;;;;16.03;79.27;100927.53;4955655;29;20034;-94
2023/05/17 07:27:08;;;;;;;12.00;6.07;;;;;;;16.02;78.67;100920.63;4956742;28;20040;-87
2023/05/17 07:29:33;;;;;;;13.35;6.57;;;;;;;16.06;79.26;100925.56;4938317;29;20028;-90
2023/05/17 07:31:59;;;;;;;12.13;5.88;;;;;;;16.12;79.69;100913.84;4906111;28;20032;-88
2023/05/17 07:34:24;;;;;;;8.43;5.68;;;;;;;16.01;78.38;100895.47;4940410;29;20075;-90
2023/05/17 07:36:50;;;;;;;8.45;4.68;;;;;;;16.24;77.46;100923.50;4939225;29;20489;-89
2023/05/17 07:39:16;;;;;;;10.70;5.68;;;;;;;16.18;77.92;100913.44;4957436;29;20031;-93
2023/05/17 07:41:42;;;;;;;12.82;6.28;;;;;;;16.37;79.02;100914.81;4950937;29;20413;-83
2023/05/17 07:44:07;;;;;;;8.70;4.97;;;;;;;16.31;75.86;100903.00;4952901;28;20023;-87
2023/05/17 07:46:33;;;;;;;19.67;10.48;;;;;;;16.19;76.89;100882.97;4950832;29;20032;-87
2023/05/17 07:48:58;;;;;;;12.40;6.53;;;;;;;16.44;77.78;100908.25;4953068;28;20034;-87
2023/05/17 07:51:24;;;;;;;8.55;6.05;;;;;;;16.50;76.56;100913.03;4953106;29;20039;-90
2023/05/17 07:53:49;;;;;;;9.43;6.15;;;;;;;16.47;78.07;100905.41;4952800;29;20030;-91
2023/05/17 07:56:14;;;;;;;10.60;5.30;;;;;;;16.60;76.34;100908.81;4936366;29;20076;-90
2023/05/17 07:58:40;;;;;;;10.93;5.70;;;;;;;16.58;76.62;100905.50;4957459;29;20027;-91
2023/05/17 08:01:05;;;;;;;12.00;6.43;;;;;;;16.67;76.10;100910.06;4957713;28;20039;-91
2023/05/17 08:03:31;;;;;;;11.27;6.40;;;;;;;16.69;75.78;100905.59;4933670;29;20035;-91
2023/05/17 08:05:56;;;;;;;8.32;5.28;;;;;;;16.78;76.18;100894.50;4955295;29;20031;-93
2023/05/17 08:08:22;;;;;;;11.38;5.53;;;;;;;16.88;74.86;100902.53;4937105;29;20038;-87
2023/05/17 08:10:47;;;;;;;9.70;5.43;;;;;;;16.96;74.62;100888.94;4951031;29;20508;-89
2023/05/17 08:13:13;;;;;;;9.57;7.07;;;;;;;17.13;74.61;100896.41;4952980;29;20055;-90
2023/05/17 08:15:38;;;;;;;21.23;9.63;;;;;;;17.07;74.28;100886.38;4953908;29;20038;-93
2023/05/17 08:18:03;;;;;;;9.85;6.60;;;;;;;17.18;73.85;100907.34;4936890;29;20483;-89
2023/05/17 08:20:29;;;;;;;13.75;6.50;;;;;;;17.16;73.29;100898.78;4955381;28;20468;-90
2023/05/17 08:22:55;;;;;;;7.35;5.18;;;;;;;17.12;73.23;100873.84;4938283;29;20106;-91
2023/05/17 08:25:20;;;;;;;8.38;5.13;;;;;;;17.26;72.98;100898.97;4932783;29;20035;-90
2023/05/17 08:27:46;;;;;;;7.13;5.45;;;;;;;17.32;72.91;100901.97;4946654;29;20563;-83
2023/05/17 08:30:11;;;;;;;7.63;5.43;;;;;;;17.38;72.21;100904.13;4939800;29;20043;-87
2023/05/17 08:32:36;;;;;;;10.35;5.55;;;;;;;17.35;72.86;100904.34;4943206;28;20034;-87
2023/05/17 08:35:03;;;;;;;11.80;6.45;;;;;;;17.33;71.75;100885.34;4933844;29;20135;-82
2023/05/17 08:37:28;;;;;;;14.45;6.20;;;;;;;17.39;72.32;100908.41;4934463;29;20027;-83
2023/05/17 08:39:54;;;;;;;13.75;6.40;;;;;;;17.48;72.25;100901.66;4949708;29;20031;-88
2023/05/17 08:42:25;;;;;;;11.43;6.65;;;;;;;17.65;72.77;100908.28;4951068;29;20449;-82
2023/05/17 08:44:52;;;;;;;10.75;6.50;;;;;;;17.53;71.49;100883.03;4935686;29;20117;-83
2023/05/17 08:47:24;;;;;;;10.30;6.10;;;;;;;17.68;71.56;100902.81;4950291;29;20031;-86
2023/05/17 08:49:53;;;;;;;11.93;6.78;;;;;;;17.86;71.92;100896.25;4939393;29;20042;-84
2023/05/17 08:52:19;;;;;;;13.68;6.05;;;;;;;17.97;70.98;100898.88;4952281;29;20089;-90
2023/05/17 08:54:44;;;;;;;11.88;6.18;;;;;;;17.95;69.85;100892.94;4920284;29;20035;-89
2023/05/17 08:57:10;;;;;;;7.95;5.15;;;;;;;17.97;69.32;100904.13;4954212;28;20028;-92
2023/05/17 08:59:35;;;;;;;16.98;6.90;;;;;;;18.01;70.17;100897.72;4937292;28;20046;-88
2023/05/17 09:02:01;;;;;;;15.23;7.05;;;;;;;17.91;69.90;100909.84;4940304;29;20039;-88
2023/05/17 09:04:27;;;;;;;15.38;6.72;;;;;;;17.91;71.70;100909.00;4927393;29;20027;-87
2023/05/17 09:06:52;;;;;;;12.43;5.97;;;;;;;17.90;70.42;100902.94;4952469;29;20023;-87
2023/05/17 09:09:18;;;;;;;15.10;7.13;;;;;;;17.98;71.69;100899.72;4954049;29;20035;-93
2023/05/17 09:11:44;;;;;;;10.45;5.95;;;;;;;18.04;71.73;100905.34;4936962;29;20078;-92
2023/05/17 09:14:09;;;;;;;17.77;6.65;;;;;;;18.16;70.60;100898.31;4937016;29;20055;-90
2023/05/17 09:16:36;;;;;;;11.18;6.40;;;;;;;18.21;69.78;100908.47;4952623;29;20153;-90
2023/05/17 09:19:06;;;;;;;10.70;6.20;;;;;;;18.13;69.43;100895.94;4938312;29;20035;-92
2023/05/17 09:21:31;;;;;;;9.25;6.20;;;;;;;18.17;69.94;100904.41;4934484;29;20118;-89
2023/05/17 09:24:00;;;;;;;16.60;6.30;;;;;;;18.18;69.30;100903.44;4948994;28;20126;-90
2023/05/17 09:26:39;;;;;;;10.43;6.40;;;;;;;18.12;70.68;100890.84;4950900;29;20030;-92
2023/05/17 09:29:11;;;;;;;13.07;6.80;;;;;;;18.19;69.94;100902.50;4956637;29;20364;-92
2023/05/17 09:31:37;;;;;;;12.10;6.70;;;;;;;18.16;69.25;100892.25;4961052;28;20909;-90
2023/05/17 09:34:02;;;;;;;13.60;8.95;;;;;;;18.08;69.36;100884.16;4919924;29;20119;-89
2023/05/17 09:36:28;;;;;;;13.07;5.43;;;;;;;18.11;69.00;100890.00;4936740;29;20503;-85
2023/05/17 09:39:00;;;;;;;13.63;6.07;;;;;;;18.12;69.46;100881.19;4951927;29;20042;-92
2023/05/17 09:41:29;;;;;;;12.05;5.80;;;;;;;18.18;70.12;100885.13;4956618;28;20516;-90
2023/05/17 09:44:02;;;;;;;7.63;5.47;;;;;;;18.26;69.61;100877.50;4937888;29;20038;-87
2023/05/17 09:46:31;;;;;;;13.02;7.07;;;;;;;18.27;69.00;100874.75;4952543;29;20046;-86
2023/05/17 09:48:56;;;;;;;7.93;5.15;;;;;;;18.19;68.57;100857.97;4934281;29;20039;-86
2023/05/17 09:51:36;;;;;;;7.68;4.90;;;;;;;18.30;69.03;100868.47;4933173;29;20028;-88
2023/05/17 09:54:01;;;;;;;13.63;8.10;;;;;;;18.35;69.31;100876.81;4953213;29;20050;-91
2023/05/17 09:56:28;;;;;;;13.43;6.30;;;;;;;18.39;68.86;100872.19;4953829;29;20507;-86
2023/05/17 09:58:54;;;;;;;16.05;6.55;;;;;;;18.48;69.07;100887.97;4951179;29;20027;-84
2023/05/17 10:01:20;;;;;;;8.32;5.75;;;;;;;18.47;70.03;100870.59;4950485;29;20394;-84
2023/05/17 10:03:46;;;;;;;11.13;5.68;;;;;;;18.89;75.58;100869.06;4921854;28;20061;-83
2023/05/17 10:06:14;;;;;;;13.18;6.10;;;;;;;18.84;70.33;100878.22;4933763;29;20031;-84
2023/05/17 10:08:42;;;;;;;11.93;7.30;;;;;;;19.04;71.04;100884.50;4935186;29;20514;-91
2023/05/17 10:11:08;;;;;;;9.93;6.43;;;;;;;19.13;68.33;100879.34;4952127;29;20049;-85
2023/05/17 10:13:43;;;;;;;13.35;8.25;;;;;;;19.03;68.63;100882.84;4934228;29;20047;-91
2023/05/17 10:16:08;;;;;;;10.70;6.75;;;;;;;18.82;67.84;100885.38;4940981;29;20031;-92
2023/05/17 10:18:34;;;;;;;9.50;6.28;;;;;;;18.65;68.73;100883.25;4954552;28;20090;-87
2023/05/17 10:21:00;;;;;;;10.98;5.90;;;;;;;18.65;69.28;100888.50;4933401;29;20096;-84
2023/05/17 10:23:26;;;;;;;8.50;5.55;;;;;;;18.57;69.24;100886.44;4933762;29;20027;-86
2023/05/17 10:25:52;;;;;;;8.82;6.72;;;;;;;18.53;69.92;100885.03;4952836;28;20452;-87
2023/05/17 10:28:18;;;;;;;12.07;7.10;;;;;;;18.47;70.04;100875.84;4954416;29;20035;-90
2023/05/17 10:30:43;;;;;;;11.43;6.45;;;;;;;18.62;69.36;100885.13;4937672;29;20038;-92
2023/05/17 10:33:10;;;;;;;13.27;6.53;;;;;;;18.39;69.95;100862.53;4955669;28;20035;-86
2023/05/17 10:35:36;;;;;;;14.10;6.47;;;;;;;18.44;70.51;100881.31;4937843;29;20064;-89
2023/05/17 10:38:02;;;;;;;9.52;6.05;;;;;;;18.43;70.61;100884.06;4955105;29;20088;-93
2023/05/17 10:40:28;;;;;;;12.75;8.43;;;;;;;18.34;70.99;100880.38;4936493;29;20039;-85
2023/05/17 10:42:53;;;;;;;12.70;7.43;;;;;;;18.30;71.21;100879.78;4951150;29;20119;-90
2023/05/17 10:45:20;;;;;;;7.88;5.68;;;;;;;18.26;71.74;100872.28;4937911;29;20090;-90
2023/05/17 10:47:46;;;;;;;14.52;6.70;;;;;;;18.37;71.88;100874.06;4932768;29;20031;-90
2023/05/17 10:50:14;;;;;;;10.77;6.47;;;;;;;18.39;71.43;100872.19;4942384;29;20039;-89
2023/05/17 10:52:47;;;;;;;9.90;6.93;;;;;;;18.40;72.23;100873.84;4908757;29;20035;-93
2023/05/17 10:55:12;;;;;;;9.25;6.68;;;;;;;18.34;72.03;100869.91;4923605;29;20572;-93
2023/05/17 10:57:38;;;;;;;13.55;5.68;;;;;;;18.29;71.40;100861.56;4929564;29;20126;-91
2023/05/17 11:00:05;;;;;;;8.73;6.07;;;;;;;18.35;71.06;100871.56;4955926;29;20078;-89
2023/05/17 11:02:31;;;;;;;12.30;6.63;;;;;;;18.22;71.46;100860.38;4957461;29;20038;-90
2023/05/17 11:04:56;;;;;;;8.85;5.25;;;;;;;18.32;72.00;100866.56;4956612;29;20027;-90
2023/05/17 11:07:31;;;;;;;10.80;5.95;;;;;;;18.36;71.83;100868.00;5066753;23;20847;-86
2023/05/17 11:10:02;;;;;;;8.00;5.57;;;;;;;18.33;72.71;100871.69;4981776;28;20034;-88
2023/05/17 11:12:37;;;;;;;14.40;6.13;;;;;;;18.27;72.32;100863.47;4974912;28;20054;-88
2023/05/17 11:15:09;;;;;;;8.35;5.55;;;;;;;18.22;71.99;100860.38;4979123;28;20030;-92
2023/05/17 11:17:49;;;;;;;;;;;;;;;18.24;71.86;100863.72;5009056;28;20030;-92